createdAt,value
2023-04-17T00:01:47.787Z,13.10
2023-04-17T00:04:18.436Z,13.63
2023-04-17T00:06:46.693Z,12.45
2023-04-17T00:09:14.895Z,13.26
2023-04-17T00:11:43.017Z,13.31
2023-04-17T00:14:11.221Z,12.78
2023-04-17T00:16:39.415Z,13.34
2023-04-17T00:19:07.626Z,12.92
2023-04-17T00:21:37.118Z,13.85
2023-04-17T00:24:05.554Z,12.08
2023-04-17T00:26:34.607Z,12.93
2023-04-17T00:29:02.974Z,14.07
2023-04-17T00:31:31.139Z,13.77
2023-04-17T00:34:01.446Z,13.67
2023-04-17T00:36:31.865Z,13.67
2023-04-17T00:39:01.506Z,13.85
2023-04-17T00:41:29.694Z,13.81
2023-04-17T00:43:57.873Z,14.31
2023-04-17T00:46:26.143Z,14.13
2023-04-17T00:48:54.393Z,13.29
2023-04-17T00:51:22.816Z,14.37
2023-04-17T00:53:51.345Z,13.42
2023-04-17T00:56:21.250Z,13.78
2023-04-17T00:58:50.014Z,13.65
2023-04-17T01:01:18.933Z,13.32
2023-04-17T01:03:47.546Z,13.64
2023-04-17T01:06:15.998Z,13.22
2023-04-17T01:08:45.343Z,14.14
2023-04-17T01:11:13.583Z,13.49
2023-04-17T01:13:50.194Z,13.33
2023-04-17T01:16:19.244Z,14.27
2023-04-17T01:18:48.352Z,13.73
2023-04-17T01:21:17.110Z,13.14
2023-04-17T01:23:48.665Z,13.99
2023-04-17T01:26:21.140Z,13.94
2023-04-17T01:28:53.724Z,14.42
2023-04-17T01:31:22.290Z,14.80
2023-04-17T01:33:51.374Z,13.86
2023-04-17T01:36:20.198Z,14.37
2023-04-17T01:38:48.391Z,14.53
2023-04-17T01:41:18.026Z,13.54
2023-04-17T01:43:48.507Z,13.86
2023-04-17T01:46:16.717Z,13.34
2023-04-17T01:48:44.932Z,13.04
2023-04-17T01:51:13.168Z,13.84
2023-04-17T01:53:41.521Z,14.34
2023-04-17T01:56:09.725Z,14.51
2023-04-17T01:58:39.238Z,14.01
2023-04-17T02:01:07.647Z,13.46
2023-04-17T02:03:36.029Z,14.32
2023-04-17T02:06:04.503Z,14.58
2023-04-17T02:08:32.668Z,13.67
2023-04-17T02:11:00.803Z,13.79
2023-04-17T02:13:29.380Z,13.97
2023-04-17T02:15:59.008Z,13.68
2023-04-17T02:18:27.546Z,14.24
2023-04-17T02:20:55.730Z,14.09
2023-04-17T02:23:23.899Z,13.33
2023-04-17T02:25:52.063Z,12.27
2023-04-17T02:28:20.271Z,13.74
2023-04-17T02:30:48.480Z,13.53
2023-04-17T02:33:18.069Z,13.67
2023-04-17T02:35:46.653Z,13.40
2023-04-17T02:38:14.959Z,13.67
2023-04-17T02:40:43.134Z,12.88
2023-04-17T02:43:13.229Z,13.55
2023-04-17T02:45:41.482Z,13.57
2023-04-17T02:48:09.939Z,13.35
2023-04-17T02:50:39.476Z,13.85
2023-04-17T02:53:07.655Z,14.39
2023-04-17T02:55:36.231Z,14.44
2023-04-17T02:58:04.487Z,14.72
2023-04-17T03:00:33.077Z,14.77
2023-04-17T03:03:03.008Z,14.28
2023-04-17T03:05:32.109Z,14.32
2023-04-17T03:08:01.892Z,14.65
2023-04-17T03:10:30.371Z,14.72
2023-04-17T03:12:58.825Z,14.14
2023-04-17T03:15:27.315Z,14.29
2023-04-17T03:17:55.539Z,14.11
2023-04-17T03:20:23.793Z,13.94
2023-04-17T03:22:51.932Z,14.38
2023-04-17T03:25:21.620Z,14.55
2023-04-17T03:27:49.753Z,13.55
2023-04-17T03:30:17.940Z,12.94
2023-04-17T03:32:46.094Z,12.59
2023-04-17T03:35:14.273Z,13.67
2023-04-17T03:37:42.432Z,14.10
2023-04-17T03:40:11.609Z,14.11
2023-04-17T03:42:41.142Z,14.41
2023-04-17T03:45:11.248Z,13.46
2023-04-17T03:47:39.441Z,14.17
2023-04-17T03:50:09.217Z,14.35
2023-04-17T03:52:37.399Z,14.44
2023-04-17T03:55:07.284Z,14.03
2023-04-17T03:57:35.420Z,14.13
2023-04-17T04:00:10.451Z,13.70
2023-04-17T04:02:38.852Z,13.19
2023-04-17T04:05:08.661Z,13.41
2023-04-17T04:07:36.869Z,13.50
2023-04-17T04:10:05.806Z,12.78
2023-04-17T04:12:33.955Z,12.91
2023-04-17T04:15:02.249Z,13.52
2023-04-17T04:17:31.790Z,12.84
2023-04-17T04:19:59.920Z,12.34
2023-04-17T04:22:29.208Z,11.92
2023-04-17T04:24:57.618Z,13.39
2023-04-17T04:27:27.697Z,13.92
2023-04-17T04:29:58.803Z,12.45
2023-04-17T04:32:27.786Z,13.43
2023-04-17T04:34:58.618Z,11.83
2023-04-17T04:37:29.975Z,12.37
2023-04-17T04:40:09.913Z,12.67
2023-04-17T04:42:39.720Z,12.11
2023-04-17T04:45:09.800Z,12.32
2023-04-17T04:47:38.009Z,11.89
2023-04-17T04:50:09.299Z,13.52
2023-04-17T04:52:37.495Z,13.77
2023-04-17T04:55:06.877Z,13.81
2023-04-17T04:57:35.016Z,14.19
2023-04-17T05:00:03.316Z,12.45
2023-04-17T05:02:31.703Z,12.94
2023-04-17T05:05:00.065Z,12.90
2023-04-17T05:07:29.615Z,13.09
2023-04-17T05:09:57.792Z,13.38
2023-04-17T05:12:26.054Z,12.65
2023-04-17T05:14:54.216Z,12.68
2023-04-17T05:17:22.435Z,12.75
2023-04-17T05:19:50.650Z,12.71
2023-04-17T05:22:18.839Z,11.73
2023-04-17T05:24:48.368Z,11.45
2023-04-17T05:27:16.814Z,11.05
2023-04-17T05:29:44.974Z,11.71
2023-04-17T05:32:13.159Z,13.09
2023-04-17T05:34:41.334Z,13.71
2023-04-17T05:37:09.635Z,13.85
2023-04-17T05:39:38.028Z,13.37
2023-04-17T05:42:07.619Z,13.13
2023-04-17T05:44:35.778Z,12.79
2023-04-17T05:47:03.948Z,12.36
2023-04-17T05:49:32.087Z,13.27
2023-04-17T05:52:00.481Z,12.12
2023-04-17T05:54:30.336Z,12.80
2023-04-17T05:56:58.574Z,13.39
2023-04-17T05:59:28.310Z,14.17
2023-04-17T06:01:56.595Z,14.11
2023-04-17T06:04:25.075Z,12.14
2023-04-17T06:06:53.377Z,11.56
2023-04-17T06:09:21.849Z,11.36
2023-04-17T06:11:50.848Z,11.72
2023-04-17T06:14:20.771Z,12.59
2023-04-17T06:16:50.337Z,13.40
2023-04-17T06:19:18.478Z,13.81
2023-04-17T06:21:46.866Z,13.73
2023-04-17T06:24:15.312Z,12.52
2023-04-17T06:26:43.489Z,12.80
2023-04-17T06:29:12.675Z,11.89
2023-04-17T06:31:41.181Z,12.73
2023-04-17T06:34:11.231Z,12.37
2023-04-17T06:36:39.498Z,11.06
2023-04-17T06:39:07.720Z,12.06
2023-04-17T06:41:35.883Z,12.91
2023-04-17T06:44:04.081Z,12.03
2023-04-17T06:46:33.444Z,12.13
2023-04-17T06:49:03.225Z,13.14
2023-04-17T06:51:33.675Z,13.50
2023-04-17T06:54:02.563Z,13.52
2023-04-17T06:56:31.316Z,11.77
2023-04-17T06:59:01.832Z,11.82
2023-04-17T07:01:31.755Z,12.30
2023-04-17T07:04:00.740Z,11.73
2023-04-17T07:06:31.617Z,11.78
2023-04-17T07:09:01.915Z,12.44
2023-04-17T07:11:30.952Z,12.68
2023-04-17T07:14:00.389Z,12.05
2023-04-17T07:16:31.157Z,11.44
2023-04-17T07:18:59.891Z,11.78
2023-04-17T07:21:29.569Z,12.31
2023-04-17T07:23:59.233Z,13.21
2023-04-17T07:26:29.484Z,12.61
2023-04-17T07:28:57.808Z,13.23
2023-04-17T07:31:28.630Z,12.66
2023-04-17T07:33:57.267Z,13.35
2023-04-17T07:36:28.029Z,11.47
2023-04-17T07:38:56.824Z,12.81
2023-04-17T07:41:25.175Z,12.39
2023-04-17T07:43:57.773Z,12.53
2023-04-17T07:46:28.781Z,12.02
2023-04-17T07:48:57.972Z,12.73
2023-04-17T07:51:27.864Z,13.57
2023-04-17T07:53:57.499Z,12.75
2023-04-17T07:56:28.260Z,12.00
2023-04-17T07:58:58.553Z,12.13
2023-04-17T08:01:27.783Z,13.27
2023-04-17T08:03:57.319Z,13.72
2023-04-17T08:06:26.649Z,12.54
2023-04-17T08:08:56.380Z,13.50
2023-04-17T08:11:25.456Z,12.65
2023-04-17T08:13:54.578Z,13.40
2023-04-17T08:16:24.419Z,13.44
2023-04-17T08:18:52.941Z,13.75
2023-04-17T08:21:21.536Z,13.30
2023-04-17T08:23:50.912Z,14.13
2023-04-17T08:26:20.642Z,13.80
2023-04-17T08:28:49.340Z,12.30
2023-04-17T08:31:18.212Z,12.64
2023-04-17T08:33:49.036Z,12.92
2023-04-17T08:36:17.476Z,13.23
2023-04-17T08:38:47.751Z,12.65
2023-04-17T08:41:25.332Z,12.90
2023-04-17T08:43:57.317Z,13.95
2023-04-17T08:46:26.898Z,14.08
2023-04-17T08:48:57.582Z,13.88
2023-04-17T08:51:28.301Z,13.90
2023-04-17T08:53:57.058Z,13.78
2023-04-17T08:56:28.091Z,13.44
2023-04-17T08:58:57.575Z,13.78
2023-04-17T09:01:26.538Z,14.26
2023-04-17T09:03:57.232Z,13.38
2023-04-17T09:06:25.714Z,13.73
2023-04-17T09:08:59.589Z,13.34
2023-04-17T09:11:29.192Z,14.08
2023-04-17T09:13:58.324Z,13.62
2023-04-17T09:16:28.666Z,13.88
2023-04-17T09:19:10.232Z,14.42
2023-04-17T09:21:39.004Z,14.89
2023-04-17T09:24:10.330Z,14.81
2023-04-17T09:26:39.555Z,13.68
2023-04-17T09:29:12.447Z,13.53
2023-04-17T09:31:45.390Z,14.15
2023-04-17T09:34:17.934Z,14.64
2023-04-17T09:36:47.994Z,13.99
2023-04-17T09:39:24.078Z,14.35
2023-04-17T09:42:03.443Z,13.61
2023-04-17T09:44:37.139Z,13.72
2023-04-17T09:47:07.707Z,14.26
2023-04-17T09:49:45.104Z,13.96
2023-04-17T09:52:14.449Z,14.48
2023-04-17T09:54:43.798Z,13.88
2023-04-17T09:57:13.523Z,14.50
2023-04-17T09:59:45.562Z,14.25
2023-04-17T10:02:17.009Z,14.52
2023-04-17T10:04:47.809Z,14.57
2023-04-17T10:07:16.652Z,14.87
2023-04-17T10:09:46.729Z,14.81
2023-04-17T10:12:18.633Z,14.88
2023-04-17T10:14:49.667Z,14.48
2023-04-17T10:17:25.208Z,14.87
2023-04-17T10:19:55.588Z,15.02
2023-04-17T10:22:34.244Z,15.15
2023-04-17T10:25:23.025Z,15.73
2023-04-17T10:27:58.664Z,14.91
2023-04-17T10:30:54.942Z,15.57
2023-04-17T10:33:28.382Z,16.13
2023-04-17T10:38:36.989Z,15.77
2023-04-17T10:41:09.763Z,15.49
2023-04-17T10:43:42.726Z,16.23
2023-04-17T10:46:12.977Z,15.02
2023-04-17T10:48:50.839Z,15.52
2023-04-17T10:51:47.492Z,14.56
2023-04-17T10:57:06.278Z,15.86
2023-04-17T10:59:37.977Z,15.53
2023-04-17T11:02:07.993Z,16.21
2023-04-17T11:04:36.895Z,16.59
2023-04-17T11:07:09.857Z,16.57
2023-04-17T11:09:38.873Z,16.03
2023-04-17T11:12:07.896Z,15.75
2023-04-17T11:14:42.579Z,16.04
2023-04-17T11:17:11.264Z,16.03
2023-04-17T11:19:41.727Z,15.81
2023-04-17T11:22:12.732Z,16.15
2023-04-17T11:24:42.673Z,16.12
2023-04-17T11:27:11.428Z,15.93
2023-04-17T11:29:39.999Z,16.18
2023-04-17T11:32:13.159Z,16.49
2023-04-17T11:34:43.037Z,16.69
2023-04-17T11:37:15.965Z,16.61
2023-04-17T11:39:45.715Z,16.71
2023-04-17T11:42:14.742Z,16.47
2023-04-17T11:44:46.043Z,16.73
2023-04-17T11:47:16.265Z,16.65
2023-04-17T11:49:45.716Z,16.86
2023-04-17T11:52:17.897Z,16.60
2023-04-17T11:54:46.548Z,15.85
2023-04-17T11:57:15.891Z,15.40
2023-04-17T11:59:46.142Z,14.78
2023-04-17T12:02:16.661Z,15.28
2023-04-17T12:04:45.742Z,15.05
2023-04-17T12:07:25.851Z,14.86
2023-04-17T12:09:58.424Z,14.94
2023-04-17T12:12:27.177Z,15.05
2023-04-17T12:14:56.115Z,15.09
2023-04-17T12:17:24.940Z,15.06
2023-04-17T12:19:54.005Z,14.96
2023-04-17T12:22:24.114Z,15.63
2023-04-17T12:24:53.101Z,15.46
2023-04-17T12:27:22.242Z,16.01
2023-04-17T12:29:51.478Z,16.17
2023-04-17T12:32:21.175Z,15.96
2023-04-17T12:34:49.778Z,15.98
2023-04-17T12:37:19.714Z,15.98
2023-04-17T12:39:50.058Z,16.44
2023-04-17T12:42:19.020Z,16.54
2023-04-17T12:44:48.491Z,16.36
2023-04-17T12:47:17.479Z,16.40
2023-04-17T12:49:46.088Z,16.60
2023-04-17T12:52:15.029Z,17.01
2023-04-17T12:54:43.238Z,16.99
2023-04-17T12:57:13.690Z,16.93
2023-04-17T12:59:42.265Z,16.83
2023-04-17T13:02:10.972Z,16.98
2023-04-17T13:04:40.911Z,16.60
2023-04-17T13:07:10.966Z,16.81
2023-04-17T13:09:40.152Z,17.02
2023-04-17T13:12:09.234Z,16.43
2023-04-17T13:14:40.049Z,16.32
2023-04-17T13:17:08.689Z,17.29
2023-04-17T13:19:40.015Z,17.13
2023-04-17T13:22:08.770Z,16.32
2023-04-17T13:24:38.588Z,16.43
2023-04-17T13:27:07.505Z,16.11
2023-04-17T13:29:39.239Z,15.66
2023-04-17T13:32:08.163Z,15.66
2023-04-17T13:34:36.524Z,15.77
2023-04-17T13:37:05.222Z,16.00
2023-04-17T13:39:33.633Z,15.87
2023-04-17T13:42:02.268Z,16.38
2023-04-17T13:44:30.654Z,16.63
2023-04-17T13:47:03.958Z,15.80
2023-04-17T13:49:32.408Z,15.75
2023-04-17T13:52:01.177Z,15.35
2023-04-17T13:54:30.446Z,15.70
2023-04-17T13:56:59.851Z,15.98
2023-04-17T13:59:28.334Z,16.46
2023-04-17T14:01:57.377Z,16.13
2023-04-17T14:04:28.127Z,16.33
2023-04-17T14:06:56.642Z,16.20
2023-04-17T14:09:25.727Z,16.18
2023-04-17T14:11:54.179Z,16.06
2023-04-17T14:14:22.805Z,16.26
2023-04-17T14:16:51.400Z,16.55
2023-04-17T14:19:20.285Z,16.20
2023-04-17T14:21:50.988Z,16.02
2023-04-17T14:24:20.888Z,15.71
2023-04-17T14:26:49.888Z,15.57
2023-04-17T14:29:20.872Z,16.26
2023-04-17T14:31:51.639Z,16.61
2023-04-17T14:34:20.356Z,16.88
2023-04-17T14:36:51.370Z,16.67
2023-04-17T14:39:20.028Z,16.64
2023-04-17T14:41:48.835Z,16.95
2023-04-17T14:44:17.554Z,16.10
2023-04-17T14:46:47.062Z,16.55
2023-04-17T14:49:16.241Z,16.09
2023-04-17T14:51:44.851Z,16.06
2023-04-17T14:54:15.581Z,16.26
2023-04-17T14:56:44.377Z,16.27
2023-04-17T14:59:13.705Z,16.13
2023-04-17T15:01:42.937Z,16.17
2023-04-17T15:04:12.063Z,16.64
2023-04-17T15:06:40.542Z,16.34
2023-04-17T15:09:09.401Z,16.13
2023-04-17T15:11:39.231Z,15.86
2023-04-17T15:14:10.802Z,15.85
2023-04-17T15:16:39.518Z,16.03
2023-04-17T15:19:08.299Z,15.94
2023-04-17T15:21:36.917Z,15.88
2023-04-17T15:24:06.858Z,16.27
2023-04-17T15:26:35.947Z,16.54
2023-04-17T15:29:06.047Z,16.45
2023-04-17T15:31:35.145Z,16.72
2023-04-17T15:34:03.714Z,16.26
2023-04-17T15:36:32.947Z,16.64
2023-04-17T15:39:01.515Z,16.59
2023-04-17T15:41:30.086Z,16.45
2023-04-17T15:43:58.826Z,16.57
2023-04-17T15:46:30.233Z,16.42
2023-04-17T15:49:08.968Z,16.16
2023-04-17T15:51:40.909Z,16.59
2023-04-17T15:54:12.265Z,16.30
2023-04-17T15:56:42.123Z,15.83
2023-04-17T15:59:10.917Z,16.06
2023-04-17T16:01:41.760Z,15.82
2023-04-17T16:04:10.466Z,16.19
2023-04-17T16:06:39.094Z,15.73
2023-04-17T16:09:07.830Z,15.38
2023-04-17T16:11:36.324Z,15.46
2023-04-17T16:14:04.922Z,16.15
2023-04-17T16:16:34.482Z,16.05
2023-04-17T16:19:05.053Z,16.09
2023-04-17T16:21:33.699Z,16.25
2023-04-17T16:24:02.248Z,16.18
2023-04-17T16:26:31.906Z,16.42
2023-04-17T16:29:02.100Z,15.94
2023-04-17T16:31:30.748Z,16.32
2023-04-17T16:33:59.789Z,16.37
2023-04-17T16:36:31.660Z,16.62
2023-04-17T16:39:03.551Z,16.23
2023-04-17T16:41:32.505Z,16.17
2023-04-17T16:44:01.294Z,16.08
2023-04-17T16:46:40.313Z,16.22
2023-04-17T16:49:18.849Z,15.97
2023-04-17T16:51:49.628Z,15.34
2023-04-17T16:54:19.768Z,15.86
2023-04-17T16:56:48.680Z,15.66
2023-04-17T16:59:18.575Z,15.89
2023-04-17T17:01:50.115Z,16.46
2023-04-17T17:04:18.853Z,16.10
2023-04-17T17:06:49.084Z,15.91
2023-04-17T17:09:17.967Z,15.96
2023-04-17T17:11:47.058Z,15.74
2023-04-17T17:14:16.507Z,15.70
2023-04-17T17:16:45.321Z,15.85
2023-04-17T17:19:16.836Z,15.56
2023-04-17T17:21:45.298Z,15.71
2023-04-17T17:24:15.348Z,16.29
2023-04-17T17:26:44.337Z,16.27
2023-04-17T17:29:14.297Z,16.41
2023-04-17T17:31:43.795Z,16.77
2023-04-17T17:34:25.262Z,15.93
2023-04-17T17:37:07.402Z,16.11
2023-04-17T17:39:48.473Z,15.85
2023-04-17T17:42:16.834Z,15.95
2023-04-17T17:44:45.851Z,15.99
2023-04-17T17:47:14.561Z,15.65
2023-04-17T17:49:43.378Z,16.10
2023-04-17T17:52:15.284Z,15.92
2023-04-17T17:54:45.555Z,16.04
2023-04-17T17:57:14.600Z,16.00
2023-04-17T17:59:43.341Z,15.67
2023-04-17T18:02:12.413Z,16.01
2023-04-17T18:04:41.268Z,15.99
2023-04-17T18:07:09.983Z,15.67
2023-04-17T18:09:38.559Z,16.17
2023-04-17T18:12:09.177Z,16.19
2023-04-17T18:14:38.015Z,15.67
2023-04-17T18:17:06.698Z,15.82
2023-04-17T18:19:41.189Z,16.31
2023-04-17T18:22:12.389Z,16.58
2023-04-17T18:24:41.010Z,16.78
2023-04-17T18:27:11.098Z,16.20
2023-04-17T18:29:39.801Z,16.51
2023-04-17T18:32:08.451Z,16.66
2023-04-17T18:34:36.872Z,16.77
2023-04-17T18:37:05.451Z,16.84
2023-04-17T18:39:34.323Z,16.55
2023-04-17T18:42:03.896Z,16.66
2023-04-17T18:44:33.775Z,16.66
2023-04-17T18:47:06.064Z,16.80
2023-04-17T18:49:35.128Z,16.84
2023-04-17T18:52:05.146Z,16.82
2023-04-17T18:54:34.052Z,16.85
2023-04-17T18:57:02.807Z,16.86
2023-04-17T18:59:31.625Z,16.84
2023-04-17T19:02:02.212Z,16.80
2023-04-17T19:04:33.430Z,16.83
2023-04-17T19:07:03.083Z,16.80
2023-04-17T19:09:31.757Z,16.87
2023-04-17T19:12:00.301Z,16.85
2023-04-17T19:14:32.609Z,16.90
2023-04-17T19:17:02.871Z,16.91
2023-04-17T19:19:31.552Z,16.85
2023-04-17T19:21:59.921Z,16.82
2023-04-17T19:24:28.663Z,16.82
2023-04-17T19:26:57.956Z,16.81
2023-04-17T19:29:26.578Z,16.78
2023-04-17T19:31:55.306Z,16.80
2023-04-17T19:34:25.982Z,16.85
2023-04-17T19:36:54.832Z,16.78
2023-04-17T19:39:23.906Z,16.76
2023-04-17T19:41:52.725Z,16.79
2023-04-17T19:44:21.440Z,16.44
2023-04-17T19:46:50.254Z,16.70
2023-04-17T19:49:19.513Z,16.67
2023-04-17T19:51:50.402Z,16.69
2023-04-17T19:54:19.294Z,16.73
2023-04-17T19:56:48.267Z,16.65
2023-04-17T19:59:16.904Z,16.70
2023-04-17T20:01:46.130Z,16.45
2023-04-17T20:04:16.965Z,16.62
2023-04-17T20:06:45.888Z,16.61
2023-04-17T20:09:16.833Z,16.66
2023-04-17T20:11:45.811Z,16.62
2023-04-17T20:14:16.838Z,16.60
2023-04-17T20:16:47.277Z,16.64
2023-04-17T20:19:18.841Z,16.54
2023-04-17T20:21:48.494Z,16.47
2023-04-17T20:24:18.867Z,16.49
2023-04-17T20:26:48.731Z,16.48
2023-04-17T20:29:17.635Z,16.50
2023-04-17T20:31:46.195Z,16.39
2023-04-17T20:34:15.009Z,16.39
2023-04-17T20:36:44.193Z,16.36
2023-04-17T20:39:12.947Z,16.30
2023-04-17T20:41:43.950Z,16.33
2023-04-17T20:44:12.767Z,16.40
2023-04-17T20:46:53.488Z,16.38
2023-04-17T20:49:22.771Z,16.40
2023-04-17T20:51:52.673Z,16.51
2023-04-17T20:54:23.248Z,16.40
2023-04-17T20:56:53.603Z,16.21
2023-04-17T20:59:23.756Z,16.32
2023-04-17T21:01:52.889Z,16.15
2023-04-17T21:04:23.229Z,16.30
2023-04-17T21:06:51.652Z,15.31
2023-04-17T21:09:20.257Z,15.79
2023-04-17T21:11:49.910Z,15.79
2023-04-17T21:14:19.831Z,15.83
2023-04-17T21:16:48.783Z,16.06
2023-04-17T21:19:17.899Z,16.10
2023-04-17T21:21:48.604Z,15.74
2023-04-17T21:24:17.773Z,15.27
2023-04-17T21:26:46.084Z,14.99
2023-04-17T21:29:15.048Z,14.42
2023-04-17T21:31:45.622Z,14.72
2023-04-17T21:34:14.926Z,14.71
2023-04-17T21:36:43.829Z,14.21
2023-04-17T21:39:12.600Z,15.00
2023-04-17T21:41:41.572Z,15.13
2023-04-17T21:44:10.913Z,15.31
2023-04-17T21:46:41.457Z,14.80
2023-04-17T21:49:11.490Z,14.79
2023-04-17T21:51:39.908Z,14.53
2023-04-17T21:54:09.919Z,14.54
2023-04-17T21:56:38.489Z,14.07
2023-04-17T21:59:09.903Z,13.91
2023-04-17T22:01:39.741Z,13.74
2023-04-17T22:04:10.411Z,13.68
2023-04-17T22:06:39.833Z,14.12
2023-04-17T22:09:08.963Z,14.80
2023-04-17T22:11:39.823Z,15.07
2023-04-17T22:14:08.313Z,15.01
2023-04-17T22:16:39.980Z,14.88
2023-04-17T22:19:08.414Z,14.92
2023-04-17T22:21:39.755Z,15.13
2023-04-17T22:24:10.295Z,14.35
2023-04-17T22:26:40.526Z,14.03
2023-04-17T22:29:09.355Z,14.66
2023-04-17T22:31:38.118Z,14.09
2023-04-17T22:34:06.790Z,13.82
2023-04-17T22:36:35.357Z,13.39
2023-04-17T22:39:05.697Z,12.64
2023-04-17T22:41:34.708Z,13.04
2023-04-17T22:44:04.125Z,12.91
2023-04-17T22:46:32.787Z,13.84
2023-04-17T22:49:01.767Z,14.06
2023-04-17T22:51:31.229Z,14.01
2023-04-17T22:54:01.613Z,14.12
2023-04-17T22:56:36.766Z,13.31
2023-04-17T22:59:05.847Z,14.13
2023-04-17T23:01:34.415Z,14.68
2023-04-17T23:04:03.154Z,14.45
2023-04-17T23:06:32.053Z,14.19
2023-04-17T23:09:00.581Z,14.26
2023-04-17T23:11:31.110Z,14.92
2023-04-17T23:14:01.954Z,14.77
2023-04-17T23:16:31.587Z,15.05
2023-04-17T23:19:00.504Z,13.27
2023-04-17T23:21:28.957Z,14.53
2023-04-17T23:23:57.384Z,13.98
2023-04-17T23:26:26.827Z,14.06
2023-04-17T23:28:55.448Z,12.75
2023-04-17T23:31:25.786Z,12.78
2023-04-17T23:33:54.495Z,13.44
2023-04-17T23:36:24.716Z,13.70
2023-04-17T23:38:54.670Z,13.23
2023-04-17T23:41:23.116Z,12.88
2023-04-17T23:43:54.557Z,12.47
2023-04-17T23:46:26.021Z,12.19
2023-04-17T23:48:54.677Z,13.00
2023-04-17T23:51:23.588Z,12.95
2023-04-17T23:53:52.494Z,12.10
2023-04-17T23:56:22.685Z,11.96
2023-04-17T23:58:51.446Z,12.12
